»·PEaware :: AAL258 CYVR-KPDX

AAL258 :: CYVR-KPDX

FLIGHT INFORMATION

Flight Status: Arrived
Operator:
American Airlines
More flights by this operator :: More flights under this callsign
Pilot: Anonymous 19012 (19012)
Aircraft: AIRBUS A320
(A320)
More flights by this aircraft type
Origin: CYVR Vancouver Intl
Canada
Destination: KPDX Portland Intl
United States
More flights between these airports :: More routes between these airports
Route: YVR SEA BUWZO KRATR2
File this flight plan on PilotEdge
Remarks:
Altitude:
(Current/Filed)
270ft
Speed:
(Current/Filed)
450kts
Departed: 08-Jan-19 07:12 PM
Arrived: 08-Jan-19 08:00 PM
Distance/Time
Traveled:
217nm/0:48
Distance/Time
To Go:
Arrived

Flight Plot

Page will automatically refresh every two minutes.


Map Options




Map Legend


Flown Route
Filed Route
Departure Airport
Arrival Airport
Navaid (VOR, NDB)
Fix

Horizontal Profiles

Position Reports

Time Latitude Longitude Heading Altitude Ground
Speed
08-Jan-19 19:03 49.198582 -123.178682 221 18ft 0kts
08-Jan-19 19:04 49.198582 -123.178682 221 18ft 0kts
08-Jan-19 19:05 49.198583 -123.178681 221 18ft 0kts
08-Jan-19 19:06 49.198653 -123.178587 220 18ft 2kts
08-Jan-19 19:07 49.199108 -123.177994 221 18ft 2kts
08-Jan-19 19:08 49.199397 -123.177476 280 16ft 1kts
08-Jan-19 19:09 49.199395 -123.177456 279 16ft 0kts
08-Jan-19 19:10 49.200126 -123.178390 348 19ft 13kts
08-Jan-19 19:11 49.201495 -123.187217 280 19ft 46kts
08-Jan-19 19:12 49.203631 -123.201183 325 22ft 6kts
08-Jan-19 19:13 49.204221 -123.201206 11 22ft 0kts
08-Jan-19 19:14 49.205185 -123.200852 67 22ft 2kts
08-Jan-19 19:15 49.199476 -123.153239 100 1466ft 184kts
08-Jan-19 19:16 49.188029 -123.065895 101 4543ft 250kts
08-Jan-19 19:17 49.135336 -123.018301 205 8142ft 267kts
08-Jan-19 19:18 49.088501 -123.107646 216 11415ft 287kts
08-Jan-19 19:19 49.004630 -123.112076 164 13282ft 340kts
08-Jan-19 19:20 48.913862 -123.063204 165 15750ft 351kts
08-Jan-19 19:22 48.822604 -123.015168 164 17912ft 362kts
08-Jan-19 19:23 48.726274 -122.964826 165 19929ft 371kts
08-Jan-19 19:24 48.627200 -122.913287 165 21747ft 380kts
08-Jan-19 19:25 48.525879 -122.860503 165 23379ft 389kts
08-Jan-19 19:26 48.422574 -122.806615 165 24859ft 396kts
08-Jan-19 19:27 48.316822 -122.752490 166 26159ft 404kts
08-Jan-19 19:28 48.209476 -122.697717 166 26930ft 413kts
08-Jan-19 19:29 48.099170 -122.641699 165 26931ft 424kts
08-Jan-19 19:30 47.985500 -122.584211 165 26934ft 432kts
08-Jan-19 19:31 47.871115 -122.526573 165 26920ft 433kts
08-Jan-19 19:32 47.756750 -122.469260 165 26915ft 432kts
08-Jan-19 19:33 47.640809 -122.429250 179 26914ft 424kts
08-Jan-19 19:34 47.523386 -122.418800 179 26915ft 423kts
08-Jan-19 19:35 47.405885 -122.408437 179 26909ft 424kts
08-Jan-19 19:36 47.287919 -122.398086 179 26906ft 423kts
08-Jan-19 19:37 47.170382 -122.387821 178 26907ft 423kts
08-Jan-19 19:38 47.053378 -122.377624 178 24740ft 426kts
08-Jan-19 19:39 46.936476 -122.367468 178 21728ft 411kts
08-Jan-19 19:40 46.825895 -122.357851 178 19895ft 373kts
08-Jan-19 19:41 46.729801 -122.349518 179 18988ft 327kts
08-Jan-19 19:41 46.653978 -122.343151 180 18260ft 324kts
08-Jan-19 19:43 46.549711 -122.334312 180 17500ft 319kts
08-Jan-19 19:43 46.476469 -122.328083 180 17099ft 316kts
08-Jan-19 19:44 46.390406 -122.320741 180 16009ft 299kts
08-Jan-19 19:45 46.309964 -122.313936 180 14353ft 282kts
08-Jan-19 19:46 46.232997 -122.323016 201 12679ft 288kts
08-Jan-19 19:48 46.145849 -122.371712 200 10747ft 289kts
08-Jan-19 19:48 46.084599 -122.405571 198 10225ft 251kts
08-Jan-19 19:49 46.020156 -122.440317 198 9273ft 251kts
08-Jan-19 19:50 45.954185 -122.475934 196 8018ft 249kts
08-Jan-19 19:51 45.895467 -122.533401 216 6718ft 267kts
08-Jan-19 19:52 45.839365 -122.604335 216 5489ft 261kts
08-Jan-19 19:53 45.784769 -122.661529 196 4841ft 231kts
08-Jan-19 19:54 45.722595 -122.697167 198 3644ft 251kts
08-Jan-19 19:55 45.660856 -122.728841 173 2218ft 224kts
08-Jan-19 19:56 45.626453 -122.676400 117 1354ft 157kts
08-Jan-19 19:57 45.608583 -122.630550 120 526ft 123kts
08-Jan-19 19:58 45.591787 -122.587860 119 38ft 104kts
08-Jan-19 19:59 45.588604 -122.582211 214 38ft 3kts
08-Jan-19 20:00 45.589536 -122.586737 262 38ft 17kts
08-Jan-19 20:01 45.592079 -122.593978 298 38ft 16kts
08-Jan-19 20:02 45.592091 -122.596461 198 38ft 0kts

Navigation Log

Ident Type
Flight plan parsing failed, navigation log unavailable